Time;durP1;ratioP1;P1;durP2;ratioP2;P2;SDS_P1;SDS_P2;PMS_P1;PMS_P2;Temp;Humidity;BMP_temperature;BMP_pressure;BME280_temperature;BME280_humidity;BME280_pressure;Samples;Min_cycle;Max_cycle;Signal;HPM_P1;HPM_P2
2023/04/28 00:01:23;;;;;;;3.05;1.95;;;;;;;;;;4944089;28;20035;-76
2023/04/28 00:03:49;;;;;;;3.30;2.03;;;;;;;;;;4942582;28;20038;-77
2023/04/28 00:06:15;;;;;;;3.72;2.05;;;;;;;;;;4943699;28;20032;-76
2023/04/28 00:08:41;;;;;;;3.55;1.50;;;;;;;;;;4944601;28;20459;-76
2023/04/28 00:11:10;;;;;;;4.43;2.15;;;;;;;;;;4942907;28;20038;-76
2023/04/28 00:13:36;;;;;;;7.10;2.03;;;;;;;;;;4942698;28;20743;-76
2023/04/28 00:16:02;;;;;;;3.55;2.08;;;;;;;;;;4946781;28;20082;-76
2023/04/28 00:18:28;;;;;;;3.80;1.77;;;;;;;;;;4944910;28;20038;-76
2023/04/28 00:20:57;;;;;;;5.03;2.08;;;;;;;;;;4944231;28;20035;-76
2023/04/28 00:23:23;;;;;;;3.55;2.03;;;;;;;;;;4942709;28;20023;-76
2023/04/28 00:25:52;;;;;;;3.20;2.08;;;;;;;;;;4944224;28;20569;-76
2023/04/28 00:28:18;;;;;;;4.40;2.25;;;;;;;;;;4942884;28;20445;-76
2023/04/28 00:30:44;;;;;;;2.20;1.33;;;;;;;;;;4947445;28;20031;-76
2023/04/28 00:33:10;;;;;;;7.15;2.42;;;;;;;;;;4947473;28;20055;-76
2023/04/28 00:35:36;;;;;;;4.80;2.13;;;;;;;;;;4944667;28;20035;-76
2023/04/28 00:38:02;;;;;;;5.38;1.95;;;;;;;;;;4947972;28;20035;-76
2023/04/28 00:40:35;;;;;;;2.63;1.90;;;;;;;;;;4946606;28;20023;-76
2023/04/28 00:43:01;;;;;;;4.80;2.10;;;;;;;;;;4941605;28;20023;-76
2023/04/28 00:45:27;;;;;;;5.05;2.22;;;;;;;;;;4947259;28;20427;-76
2023/04/28 00:47:55;;;;;;;4.43;2.15;;;;;;;;;;4948064;28;20071;-76
2023/04/28 00:50:21;;;;;;;4.97;2.70;;;;;;;;;;4945992;28;20035;-76
2023/04/28 00:52:47;;;;;;;4.40;2.05;;;;;;;;;;4944239;28;20038;-76
2023/04/28 00:55:15;;;;;;;7.97;2.38;;;;;;;;;;4934668;28;20397;-75
2023/04/28 00:57:41;;;;;;;7.25;2.20;;;;;;;;;;4946156;28;20027;-76
2023/04/28 01:00:07;;;;;;;3.22;1.85;;;;;;;;;;4946158;28;20054;-76
2023/04/28 01:02:34;;;;;;;7.22;2.50;;;;;;;;;;4945534;28;20038;-76
2023/04/28 01:05:01;;;;;;;4.15;1.88;;;;;;;;;;4940137;28;20130;-76
2023/04/28 01:07:27;;;;;;;4.22;2.13;;;;;;;;;;4941937;28;20062;-75
2023/04/28 01:09:53;;;;;;;4.32;2.30;;;;;;;;;;4947446;28;20106;-76
2023/04/28 01:12:19;;;;;;;2.72;1.90;;;;;;;;;;4946557;28;20027;-76
2023/04/28 01:14:45;;;;;;;4.65;2.42;;;;;;;;;;4945810;28;20027;-76
2023/04/28 01:17:12;;;;;;;3.42;2.17;;;;;;;;;;4947821;28;20035;-75
2023/04/28 01:19:38;;;;;;;6.85;2.67;;;;;;;;;;4946182;28;20058;-76
2023/04/28 01:22:03;;;;;;;3.40;2.17;;;;;;;;;;4947820;28;20027;-76
2023/04/28 01:24:30;;;;;;;4.53;2.35;;;;;;;;;;4947132;28;20118;-76
2023/04/28 01:26:56;;;;;;;4.35;2.10;;;;;;;;;;4939214;28;20469;-76
2023/04/28 01:29:22;;;;;;;5.10;2.00;;;;;;;;;;4939902;28;20050;-76
2023/04/28 01:31:50;;;;;;;8.10;2.35;;;;;;;;;;4938306;28;21208;-76
2023/04/28 01:34:16;;;;;;;5.97;2.63;;;;;;;;;;4945657;28;20031;-76
2023/04/28 01:36:42;;;;;;;4.55;2.13;;;;;;;;;;4949068;28;20034;-76
2023/04/28 01:39:08;;;;;;;3.83;1.80;;;;;;;;;;4941295;28;20039;-76
2023/04/28 01:41:34;;;;;;;5.72;3.28;;;;;;;;;;4949146;28;20023;-75
2023/04/28 01:44:00;;;;;;;3.85;2.08;;;;;;;;;;4949599;28;20038;-76
2023/04/28 01:46:26;;;;;;;4.82;2.22;;;;;;;;;;4951109;28;20019;-75
2023/04/28 01:48:52;;;;;;;4.18;2.08;;;;;;;;;;4949210;28;20054;-75
2023/04/28 01:51:18;;;;;;;4.60;2.30;;;;;;;;;;4951154;28;20027;-76
2023/04/28 01:53:44;;;;;;;4.03;1.98;;;;;;;;;;4949484;28;20141;-76
2023/04/28 01:56:10;;;;;;;4.72;1.77;;;;;;;;;;4949553;29;20045;-76
2023/04/28 01:58:36;;;;;;;4.20;2.30;;;;;;;;;;4950494;28;20082;-75
2023/04/28 02:01:02;;;;;;;2.55;1.98;;;;;;;;;;4941674;28;20027;-76
2023/04/28 02:03:28;;;;;;;5.47;2.40;;;;;;;;;;4947606;28;20402;-76
2023/04/28 02:05:54;;;;;;;4.97;2.22;;;;;;;;;;4948533;28;20083;-76
2023/04/28 02:08:20;;;;;;;4.38;2.00;;;;;;;;;;4947895;28;20855;-75
2023/04/28 02:10:46;;;;;;;4.50;2.28;;;;;;;;;;4946809;28;20078;-75
2023/04/28 02:13:12;;;;;;;4.25;2.45;;;;;;;;;;4944507;28;20075;-76
2023/04/28 02:15:42;;;;;;;3.33;2.42;;;;;;;;;;4950661;28;20032;-76
2023/04/28 02:18:08;;;;;;;3.63;2.60;;;;;;;;;;4950905;28;20027;-76
2023/04/28 02:20:34;;;;;;;6.13;3.03;;;;;;;;;;4949132;28;20086;-75
2023/04/28 02:23:00;;;;;;;5.93;2.60;;;;;;;;;;4949611;28;20050;-75
2023/04/28 02:25:26;;;;;;;5.50;2.05;;;;;;;;;;4949925;28;20106;-75
2023/04/28 02:27:52;;;;;;;3.85;2.40;;;;;;;;;;4947657;28;20318;-75
2023/04/28 02:30:18;;;;;;;3.60;2.08;;;;;;;;;;4949811;28;20032;-75
2023/04/28 02:32:44;;;;;;;4.45;2.03;;;;;;;;;;4949971;28;20098;-76
2023/04/28 02:35:10;;;;;;;5.32;2.35;;;;;;;;;;4938335;28;20095;-76
2023/04/28 02:37:36;;;;;;;5.55;1.92;;;;;;;;;;4949437;28;20042;-75
2023/04/28 02:40:02;;;;;;;3.55;1.95;;;;;;;;;;4942690;28;20107;-75
2023/04/28 02:42:28;;;;;;;4.85;2.33;;;;;;;;;;4946074;28;20031;-76
2023/04/28 02:44:54;;;;;;;3.75;2.05;;;;;;;;;;4948308;28;20533;-76
2023/04/28 02:47:20;;;;;;;5.50;2.40;;;;;;;;;;4948927;28;20394;-75
2023/04/28 02:49:46;;;;;;;4.28;1.98;;;;;;;;;;4945723;28;20125;-76
2023/04/28 02:52:12;;;;;;;3.63;2.53;;;;;;;;;;4950782;28;20028;-76
2023/04/28 02:54:38;;;;;;;4.55;2.10;;;;;;;;;;4947016;28;20062;-76
2023/04/28 02:57:04;;;;;;;2.33;1.58;;;;;;;;;;4950129;28;20139;-75
2023/04/28 02:59:30;;;;;;;4.13;2.42;;;;;;;;;;4949680;28;20030;-76
2023/04/28 03:01:56;;;;;;;3.90;2.13;;;;;;;;;;4948076;28;20490;-76
2023/04/28 03:04:22;;;;;;;3.65;2.03;;;;;;;;;;4949062;28;20118;-75
2023/04/28 03:06:48;;;;;;;4.55;2.47;;;;;;;;;;4943163;28;20114;-76
2023/04/28 03:09:14;;;;;;;6.10;2.00;;;;;;;;;;4946231;28;20265;-76
2023/04/28 03:11:40;;;;;;;4.40;2.30;;;;;;;;;;4949864;28;20035;-76
2023/04/28 03:14:06;;;;;;;3.35;1.88;;;;;;;;;;4942272;28;20035;-76
2023/04/28 03:16:32;;;;;;;2.47;1.50;;;;;;;;;;4945870;28;20533;-75
2023/04/28 03:18:58;;;;;;;5.47;2.05;;;;;;;;;;4943491;28;20024;-76
2023/04/28 03:21:26;;;;;;;3.58;1.92;;;;;;;;;;4946978;28;20055;-76
2023/04/28 03:23:52;;;;;;;3.17;1.90;;;;;;;;;;4953828;28;20019;-76
2023/04/28 03:26:18;;;;;;;2.47;1.70;;;;;;;;;;4947046;28;20431;-76
2023/04/28 03:28:44;;;;;;;3.80;1.88;;;;;;;;;;4944868;28;20451;-76
2023/04/28 03:31:10;;;;;;;3.05;2.25;;;;;;;;;;4945523;28;20078;-76
2023/04/28 03:33:36;;;;;;;3.25;1.80;;;;;;;;;;4943129;28;20039;-75
2023/04/28 03:36:02;;;;;;;4.07;2.13;;;;;;;;;;4947603;28;20030;-76
2023/04/28 03:38:28;;;;;;;2.40;1.75;;;;;;;;;;4948252;28;20030;-75
2023/04/28 03:40:55;;;;;;;2.75;1.75;;;;;;;;;;4939188;28;20071;-75
2023/04/28 03:43:21;;;;;;;3.30;1.80;;;;;;;;;;4939694;28;20024;-75
2023/04/28 03:45:48;;;;;;;2.50;1.70;;;;;;;;;;4944665;28;20203;-75
2023/04/28 03:48:17;;;;;;;3.13;1.75;;;;;;;;;;4941916;28;20039;-75
2023/04/28 03:50:44;;;;;;;7.13;2.28;;;;;;;;;;4944031;28;20031;-75
2023/04/28 03:53:13;;;;;;;4.95;2.17;;;;;;;;;;4942371;28;20032;-75
2023/04/28 03:55:39;;;;;;;2.20;1.70;;;;;;;;;;4943130;28;20068;-75
2023/04/28 03:58:05;;;;;;;3.92;2.13;;;;;;;;;;4942934;28;20479;-75
2023/04/28 04:00:31;;;;;;;2.50;1.80;;;;;;;;;;4941747;28;20342;-75
2023/04/28 04:02:57;;;;;;;4.40;2.10;;;;;;;;;;4942942;28;20023;-75
2023/04/28 04:05:23;;;;;;;3.85;1.88;;;;;;;;;;4941872;28;20109;-75
2023/04/28 04:07:49;;;;;;;6.88;2.20;;;;;;;;;;4942416;28;20027;-75
2023/04/28 04:10:15;;;;;;;4.35;2.45;;;;;;;;;;4948755;28;20526;-75
2023/04/28 04:12:41;;;;;;;3.35;1.85;;;;;;;;;;4946335;28;20530;-75
2023/04/28 04:15:08;;;;;;;3.63;2.03;;;;;;;;;;4947103;28;20039;-75
2023/04/28 04:17:34;;;;;;;2.42;1.55;;;;;;;;;;4943126;28;20031;-75
2023/04/28 04:19:59;;;;;;;3.30;2.28;;;;;;;;;;4941171;28;20059;-75
2023/04/28 04:22:25;;;;;;;4.30;2.17;;;;;;;;;;4947150;28;20082;-75
2023/04/28 04:24:51;;;;;;;5.20;2.42;;;;;;;;;;4944950;28;20161;-75
2023/04/28 04:27:18;;;;;;;4.03;1.52;;;;;;;;;;4946781;28;20023;-76
2023/04/28 04:29:44;;;;;;;3.45;1.98;;;;;;;;;;4946107;28;20031;-75
2023/04/28 04:32:10;;;;;;;2.75;1.83;;;;;;;;;;4947379;28;20026;-75
2023/04/28 04:34:36;;;;;;;3.10;1.90;;;;;;;;;;4946737;28;20678;-75
2023/04/28 04:37:02;;;;;;;2.47;1.60;;;;;;;;;;4944646;29;20024;-75
2023/04/28 04:39:28;;;;;;;3.15;1.30;;;;;;;;;;4947420;28;21357;-76
2023/04/28 04:41:54;;;;;;;5.43;1.90;;;;;;;;;;4946239;28;20043;-75
2023/04/28 04:44:20;;;;;;;2.35;1.83;;;;;;;;;;4946452;28;20470;-75
2023/04/28 04:46:46;;;;;;;4.18;1.92;;;;;;;;;;4947218;28;20024;-75
2023/04/28 04:49:12;;;;;;;2.92;1.65;;;;;;;;;;4949064;28;20035;-75
2023/04/28 04:51:38;;;;;;;4.20;1.55;;;;;;;;;;4945765;28;20038;-75
2023/04/28 04:54:04;;;;;;;3.08;1.70;;;;;;;;;;4945256;28;20023;-75
2023/04/28 04:56:30;;;;;;;2.92;1.92;;;;;;;;;;4943852;28;20035;-75
2023/04/28 04:58:56;;;;;;;2.88;1.30;;;;;;;;;;4947291;28;20031;-75
2023/04/28 05:01:22;;;;;;;1.83;1.45;;;;;;;;;;4947611;28;20544;-75
2023/04/28 05:03:48;;;;;;;2.45;1.67;;;;;;;;;;4942858;28;20031;-76
2023/04/28 05:06:14;;;;;;;2.75;1.70;;;;;;;;;;4941351;28;20703;-75
2023/04/28 05:08:40;;;;;;;2.78;1.58;;;;;;;;;;4938631;28;20032;-76
2023/04/28 05:11:06;;;;;;;3.72;1.48;;;;;;;;;;4936723;28;20399;-81
2023/04/28 05:13:32;;;;;;;2.83;1.80;;;;;;;;;;4943204;28;20510;-81
2023/04/28 05:15:58;;;;;;;2.60;1.85;;;;;;;;;;4947588;28;20230;-81
2023/04/28 05:18:24;;;;;;;4.13;1.60;;;;;;;;;;4944828;28;20309;-75
2023/04/28 05:20:50;;;;;;;2.00;1.40;;;;;;;;;;4947283;28;20088;-75
2023/04/28 05:23:16;;;;;;;4.50;1.60;;;;;;;;;;4943074;28;20027;-75
2023/04/28 05:25:42;;;;;;;2.30;1.60;;;;;;;;;;4943088;28;20055;-75
2023/04/28 05:28:09;;;;;;;2.42;1.80;;;;;;;;;;4943964;28;20027;-74
2023/04/28 05:30:35;;;;;;;2.13;1.58;;;;;;;;;;4943941;28;20024;-73
2023/04/28 05:33:01;;;;;;;2.33;1.42;;;;;;;;;;4939955;28;20500;-73
2023/04/28 05:35:27;;;;;;;1.70;1.15;;;;;;;;;;4944064;28;20031;-74
2023/04/28 05:37:53;;;;;;;3.90;1.60;;;;;;;;;;4942372;28;20171;-74
2023/04/28 05:40:43;;;;;;;3.55;1.58;;;;;;;;;;4944234;28;20537;-74
2023/04/28 05:43:09;;;;;;;2.45;1.58;;;;;;;;;;4935450;28;20059;-73
2023/04/28 05:45:35;;;;;;;2.05;1.30;;;;;;;;;;4946361;28;20027;-76
2023/04/28 05:48:01;;;;;;;2.58;1.38;;;;;;;;;;4944454;28;20019;-77
2023/04/28 05:50:27;;;;;;;3.70;1.75;;;;;;;;;;4946978;28;20058;-77
2023/04/28 05:52:53;;;;;;;5.40;1.40;;;;;;;;;;4940504;28;20035;-78
2023/04/28 05:55:19;;;;;;;3.38;1.42;;;;;;;;;;4947953;28;20046;-77
2023/04/28 05:57:45;;;;;;;5.18;1.35;;;;;;;;;;4946359;28;20046;-78
2023/04/28 06:00:11;;;;;;;1.98;1.42;;;;;;;;;;4946296;28;20027;-77
2023/04/28 06:02:37;;;;;;;1.52;1.17;;;;;;;;;;4941219;28;20517;-78
2023/04/28 06:05:03;;;;;;;1.38;1.27;;;;;;;;;;4947526;28;20142;-78
2023/04/28 06:07:29;;;;;;;2.88;1.02;;;;;;;;;;4944709;28;20031;-78
2023/04/28 06:09:55;;;;;;;2.38;1.60;;;;;;;;;;4943719;28;20050;-78
2023/04/28 06:12:21;;;;;;;1.33;1.23;;;;;;;;;;4948063;28;20030;-78
2023/04/28 06:14:47;;;;;;;1.92;1.48;;;;;;;;;;4943923;28;20038;-79
2023/04/28 06:17:13;;;;;;;2.50;1.65;;;;;;;;;;4947364;28;20031;-77
2023/04/28 06:19:39;;;;;;;1.35;1.00;;;;;;;;;;4947833;28;20031;-78
2023/04/28 06:22:05;;;;;;;5.03;1.20;;;;;;;;;;4947542;28;20023;-78
2023/04/28 06:24:32;;;;;;;2.00;1.52;;;;;;;;;;4950075;28;20050;-78
2023/04/28 06:26:58;;;;;;;1.58;1.13;;;;;;;;;;4949345;28;20110;-78
2023/04/28 06:29:24;;;;;;;2.45;1.48;;;;;;;;;;4943718;28;20042;-78
2023/04/28 06:31:51;;;;;;;14.70;1.75;;;;;;;;;;4946586;28;20027;-77
2023/04/28 06:34:17;;;;;;;2.65;1.60;;;;;;;;;;4946366;28;20493;-78
2023/04/28 06:36:43;;;;;;;1.45;1.15;;;;;;;;;;4950720;28;20039;-77
2023/04/28 06:39:09;;;;;;;1.48;0.93;;;;;;;;;;4950542;28;20023;-77
2023/04/28 06:41:35;;;;;;;1.30;1.20;;;;;;;;;;4951166;28;20486;-76
2023/04/28 06:44:01;;;;;;;1.13;1.00;;;;;;;;;;4936425;28;20023;-75
2023/04/28 06:46:27;;;;;;;1.92;1.20;;;;;;;;;;4950659;28;20062;-75
2023/04/28 06:48:52;;;;;;;1.65;1.00;;;;;;;;;;4951352;28;20023;-75
2023/04/28 06:51:18;;;;;;;5.40;1.00;;;;;;;;;;4949402;28;20386;-74
2023/04/28 06:53:44;;;;;;;1.80;1.00;;;;;;;;;;4949237;28;20544;-75
2023/04/28 06:56:10;;;;;;;5.45;1.10;;;;;;;;;;4948199;28;20509;-75
2023/04/28 06:58:36;;;;;;;1.25;0.90;;;;;;;;;;4949230;28;20035;-75
2023/04/28 07:01:04;;;;;;;1.48;1.38;;;;;;;;;;4950666;28;20070;-75
2023/04/28 07:03:30;;;;;;;3.55;1.30;;;;;;;;;;4950136;28;20032;-75
2023/04/28 07:05:57;;;;;;;1.73;1.00;;;;;;;;;;4949023;28;20062;-75
2023/04/28 07:08:23;;;;;;;1.40;0.77;;;;;;;;;;4950568;28;20131;-75
2023/04/28 07:10:49;;;;;;;2.25;1.25;;;;;;;;;;4949674;28;20035;-75
2023/04/28 07:13:15;;;;;;;1.55;1.08;;;;;;;;;;4948097;28;20039;-75
2023/04/28 07:15:41;;;;;;;7.45;2.47;;;;;;;;;;4948135;28;20019;-75
2023/04/28 07:18:07;;;;;;;3.53;1.00;;;;;;;;;;4950027;28;20513;-75
2023/04/28 07:20:33;;;;;;;1.98;1.13;;;;;;;;;;4950421;28;20023;-75
2023/04/28 07:22:59;;;;;;;4.90;1.55;;;;;;;;;;4949451;28;20030;-75
2023/04/28 07:25:25;;;;;;;1.40;1.10;;;;;;;;;;4947792;28;20578;-74
2023/04/28 07:27:53;;;;;;;1.80;0.93;;;;;;;;;;4949296;28;20486;-75
2023/04/28 07:30:19;;;;;;;1.33;1.15;;;;;;;;;;4949879;28;20127;-75
2023/04/28 07:32:45;;;;;;;3.22;1.40;;;;;;;;;;4949503;28;20038;-75
2023/04/28 07:35:11;;;;;;;1.92;1.00;;;;;;;;;;4946489;28;20050;-75
2023/04/28 07:37:37;;;;;;;1.50;1.08;;;;;;;;;;4949099;28;20031;-74
2023/04/28 07:40:03;;;;;;;2.17;0.73;;;;;;;;;;4948946;28;20375;-74
2023/04/28 07:42:29;;;;;;;1.70;1.10;;;;;;;;;;4949571;28;20090;-75
2023/04/28 07:44:58;;;;;;;2.45;1.05;;;;;;;;;;4946906;28;20169;-74
2023/04/28 07:47:25;;;;;;;1.08;0.95;;;;;;;;;;4948809;28;20126;-74
2023/04/28 07:49:51;;;;;;;2.45;1.30;;;;;;;;;;4949134;28;20162;-75
2023/04/28 07:52:17;;;;;;;1.98;1.05;;;;;;;;;;4949697;28;20419;-75
2023/04/28 07:54:43;;;;;;;1.35;1.15;;;;;;;;;;4949118;28;20226;-75
2023/04/28 07:57:09;;;;;;;1.10;0.77;;;;;;;;;;4948420;28;20034;-76
2023/04/28 07:59:35;;;;;;;0.95;0.80;;;;;;;;;;4949069;28;20031;-75
2023/04/28 08:02:01;;;;;;;2.40;1.17;;;;;;;;;;4949191;28;20489;-75
2023/04/28 08:04:29;;;;;;;0.68;0.68;;;;;;;;;;4949277;28;20398;-75
2023/04/28 08:06:55;;;;;;;2.03;1.13;;;;;;;;;;4946496;28;20446;-75
2023/04/28 08:09:20;;;;;;;1.30;1.00;;;;;;;;;;4949412;28;20026;-75
2023/04/28 08:11:47;;;;;;;2.42;0.88;;;;;;;;;;4948682;28;20574;-75
2023/04/28 08:14:13;;;;;;;2.10;1.08;;;;;;;;;;4948484;28;20033;-76
2023/04/28 08:16:40;;;;;;;1.55;1.17;;;;;;;;;;4942968;28;20023;-75
2023/04/28 08:19:06;;;;;;;4.63;1.38;;;;;;;;;;4947966;28;20490;-76
2023/04/28 08:21:33;;;;;;;1.48;0.88;;;;;;;;;;4950005;28;20028;-77
2023/04/28 08:23:59;;;;;;;1.88;0.98;;;;;;;;;;4948587;28;20513;-77
2023/04/28 08:26:24;;;;;;;1.10;0.90;;;;;;;;;;4949437;28;20035;-84
2023/04/28 08:28:54;;;;;;;1.35;1.10;;;;;;;;;;4947301;28;20046;-79
2023/04/28 08:31:19;;;;;;;1.33;0.85;;;;;;;;;;4932697;29;20041;-83
2023/04/28 08:33:48;;;;;;;0.93;0.80;;;;;;;;;;4948561;28;20035;-81
2023/04/28 08:36:14;;;;;;;1.30;0.90;;;;;;;;;;4949075;28;20171;-82
2023/04/28 08:38:41;;;;;;;7.53;0.90;;;;;;;;;;4946287;28;20497;-79
2023/04/28 08:41:07;;;;;;;1.35;0.82;;;;;;;;;;4949829;28;20078;-84
2023/04/28 08:43:36;;;;;;;1.15;0.90;;;;;;;;;;4946352;28;20031;-81
2023/04/28 08:46:05;;;;;;;1.02;0.90;;;;;;;;;;4957171;28;20027;-83
2023/04/28 08:48:32;;;;;;;2.30;1.02;;;;;;;;;;4941916;28;20042;-84
2023/04/28 08:51:00;;;;;;;1.42;0.98;;;;;;;;;;4949821;28;20027;-80
2023/04/28 08:53:26;;;;;;;1.10;1.00;;;;;;;;;;4940724;28;20031;-84
2023/04/28 08:55:56;;;;;;;0.77;0.75;;;;;;;;;;4950309;28;20122;-84
2023/04/28 08:58:23;;;;;;;0.98;0.80;;;;;;;;;;4949899;28;20053;-81
2023/04/28 09:00:50;;;;;;;0.98;0.88;;;;;;;;;;4948518;28;20039;-80
2023/04/28 09:03:16;;;;;;;1.73;0.93;;;;;;;;;;4948468;28;20027;-80
2023/04/28 09:05:42;;;;;;;0.73;0.63;;;;;;;;;;4945539;28;20055;-80
2023/04/28 09:08:10;;;;;;;1.00;0.90;;;;;;;;;;4941654;28;20058;-73
2023/04/28 09:10:37;;;;;;;1.25;0.85;;;;;;;;;;4942585;28;20391;-76
2023/04/28 09:13:03;;;;;;;1.50;0.80;;;;;;;;;;4946800;28;20086;-75
2023/04/28 09:15:29;;;;;;;0.85;0.68;;;;;;;;;;4945909;28;20031;-75
2023/04/28 09:17:55;;;;;;;1.45;1.08;;;;;;;;;;4944355;28;20394;-75
2023/04/28 09:20:23;;;;;;;1.20;0.90;;;;;;;;;;4947645;28;20027;-76
2023/04/28 09:22:49;;;;;;;1.55;0.90;;;;;;;;;;4948359;28;20051;-77
2023/04/28 09:25:15;;;;;;;1.40;0.90;;;;;;;;;;4948634;28;20453;-77
2023/04/28 09:27:41;;;;;;;1.38;0.90;;;;;;;;;;4941679;28;20032;-80
2023/04/28 09:30:08;;;;;;;2.05;1.20;;;;;;;;;;4947519;28;20402;-80
2023/04/28 09:32:35;;;;;;;1.42;1.00;;;;;;;;;;4949655;28;20031;-80
2023/04/28 09:35:03;;;;;;;1.52;0.90;;;;;;;;;;4946341;28;20113;-80
2023/04/28 09:37:50;;;;;;;0.88;0.88;;;;;;;;;;4947452;28;20023;-79
2023/04/28 09:40:17;;;;;;;0.95;0.73;;;;;;;;;;4948029;28;20054;-78
2023/04/28 09:42:46;;;;;;;4.20;0.98;;;;;;;;;;4948901;28;20023;-80
2023/04/28 09:45:13;;;;;;;2.92;1.25;;;;;;;;;;4945356;28;20111;-79
2023/04/28 09:47:40;;;;;;;1.42;1.13;;;;;;;;;;4948538;28;20483;-87
2023/04/28 09:50:10;;;;;;;3.53;1.02;;;;;;;;;;4944942;28;20453;-87
2023/04/28 09:52:36;;;;;;;1.45;0.98;;;;;;;;;;4937887;28;20063;-88
2023/04/28 09:55:07;;;;;;;1.60;1.10;;;;;;;;;;4950423;28;20110;-88
2023/04/28 09:57:35;;;;;;;0.85;0.80;;;;;;;;;;4950653;28;20078;-88
2023/04/28 10:00:04;;;;;;;1.75;1.10;;;;;;;;;;4947681;28;20023;-85
2023/04/28 10:02:31;;;;;;;1.08;0.70;;;;;;;;;;4948495;28;20027;-85
2023/04/28 10:04:57;;;;;;;1.00;0.90;;;;;;;;;;4950770;28;20055;-85
2023/04/28 10:07:23;;;;;;;1.60;0.98;;;;;;;;;;4951475;28;20031;-86
2023/04/28 10:09:53;;;;;;;1.45;1.05;;;;;;;;;;4950125;28;20230;-88
2023/04/28 10:12:22;;;;;;;1.35;1.23;;;;;;;;;;4944448;28;20058;-88
2023/04/28 10:14:49;;;;;;;2.10;1.15;;;;;;;;;;4954131;28;20031;-87
2023/04/28 10:17:15;;;;;;;0.77;0.77;;;;;;;;;;4948424;28;20114;-88
2023/04/28 10:19:43;;;;;;;0.93;0.80;;;;;;;;;;4949897;28;20035;-87
2023/04/28 10:22:21;;;;;;;2.58;1.05;;;;;;;;;;4951094;28;20023;-87
2023/04/28 10:24:54;;;;;;;1.27;0.98;;;;;;;;;;4958483;28;20486;-87
2023/04/28 10:27:21;;;;;;;0.70;0.70;;;;;;;;;;4941821;29;20031;-87
2023/04/28 10:29:47;;;;;;;2.33;1.10;;;;;;;;;;4948112;28;20035;-88
2023/04/28 10:32:19;;;;;;;2.25;0.98;;;;;;;;;;4947442;28;20110;-86
2023/04/28 10:34:46;;;;;;;1.00;0.90;;;;;;;;;;4948870;28;20304;-86
2023/04/28 10:37:18;;;;;;;1.20;1.00;;;;;;;;;;4946421;28;20042;-85
2023/04/28 10:40:03;;;;;;;2.28;0.82;;;;;;;;;;4949485;28;20508;-87
2023/04/28 10:42:48;;;;;;;1.20;1.10;;;;;;;;;;4964837;28;20031;-88
2023/04/28 10:45:14;;;;;;;0.90;0.90;;;;;;;;;;4951820;28;20034;-87
2023/04/28 10:48:02;;;;;;;1.25;1.08;;;;;;;;;;4932232;28;20034;-86
2023/04/28 10:50:36;;;;;;;1.20;1.08;;;;;;;;;;4957295;28;20115;-87
2023/04/28 10:53:03;;;;;;;5.35;0.80;;;;;;;;;;4952232;28;20035;-87
2023/04/28 10:55:35;;;;;;;1.00;0.90;;;;;;;;;;4951046;28;20505;-84
2023/04/28 10:58:20;;;;;;;1.08;0.80;;;;;;;;;;4939273;29;20509;-76
2023/04/28 11:00:46;;;;;;;1.13;1.00;;;;;;;;;;4950951;28;20031;-76
2023/04/28 11:03:32;;;;;;;1.15;0.90;;;;;;;;;;4951181;28;20082;-76
2023/04/28 11:06:17;;;;;;;0.90;0.77;;;;;;;;;;4947262;28;20700;-76
2023/04/28 11:08:43;;;;;;;1.15;0.95;;;;;;;;;;4949105;28;20039;-76
2023/04/28 11:11:09;;;;;;;1.15;1.05;;;;;;;;;;4951178;28;20090;-76
2023/04/28 11:13:36;;;;;;;1.42;1.05;;;;;;;;;;4951059;28;20057;-76
2023/04/28 11:16:05;;;;;;;2.20;1.10;;;;;;;;;;4950890;28;20089;-76
2023/04/28 11:18:52;;;;;;;2.83;1.08;;;;;;;;;;4949984;28;20111;-75
2023/04/28 11:21:19;;;;;;;1.35;1.10;;;;;;;;;;4947074;28;20046;-75
2023/04/28 11:23:45;;;;;;;1.38;1.02;;;;;;;;;;4950900;28;20028;-75
2023/04/28 11:26:11;;;;;;;1.92;1.00;;;;;;;;;;4951007;28;20023;-75
2023/04/28 11:28:46;;;;;;;1.10;1.00;;;;;;;;;;4950754;28;20031;-75
2023/04/28 11:31:17;;;;;;;1.38;1.02;;;;;;;;;;4949495;28;20034;-75
2023/04/28 11:33:44;;;;;;;1.75;0.93;;;;;;;;;;4950600;28;20042;-75
2023/04/28 11:36:21;;;;;;;1.70;1.08;;;;;;;;;;4949613;28;20126;-75
2023/04/28 11:38:48;;;;;;;2.30;1.05;;;;;;;;;;4950297;28;20652;-76
2023/04/28 11:41:17;;;;;;;1.38;0.93;;;;;;;;;;4949136;28;20019;-76
2023/04/28 11:43:43;;;;;;;0.80;0.80;;;;;;;;;;4950474;28;20097;-76
2023/04/28 11:46:09;;;;;;;1.40;1.05;;;;;;;;;;4949249;28;20042;-76
2023/04/28 11:48:35;;;;;;;0.90;0.90;;;;;;;;;;4950553;28;20115;-75
2023/04/28 11:51:01;;;;;;;3.15;1.13;;;;;;;;;;4949938;28;20062;-75
2023/04/28 11:53:41;;;;;;;1.52;1.00;;;;;;;;;;4950624;28;20031;-76
2023/04/28 11:56:07;;;;;;;1.27;1.05;;;;;;;;;;4948784;28;20592;-76
2023/04/28 11:58:33;;;;;;;1.10;0.85;;;;;;;;;;4947351;28;20069;-75
2023/04/28 12:01:14;;;;;;;1.08;0.98;;;;;;;;;;4948955;28;20504;-75
2023/04/28 12:03:43;;;;;;;0.98;0.90;;;;;;;;;;4950199;28;20027;-75
2023/04/28 12:06:09;;;;;;;1.10;0.98;;;;;;;;;;4949962;28;20054;-75
2023/04/28 12:08:35;;;;;;;0.73;0.73;;;;;;;;;;4946047;28;20035;-75
2023/04/28 12:11:14;;;;;;;0.95;0.85;;;;;;;;;;4950005;28;20371;-75
2023/04/28 12:13:40;;;;;;;1.10;0.95;;;;;;;;;;4949469;28;20027;-76
2023/04/28 12:16:07;;;;;;;1.58;1.00;;;;;;;;;;4949479;28;20451;-76
2023/04/28 12:18:33;;;;;;;2.70;1.08;;;;;;;;;;4947957;28;20115;-76
2023/04/28 12:20:59;;;;;;;1.52;0.80;;;;;;;;;;4948688;28;20706;-75
2023/04/28 12:23:32;;;;;;;2.20;1.05;;;;;;;;;;4949771;28;20027;-77
2023/04/28 12:25:59;;;;;;;2.65;1.23;;;;;;;;;;4949652;28;20110;-76
2023/04/28 12:28:39;;;;;;;1.40;1.20;;;;;;;;;;4947550;28;20027;-76
2023/04/28 12:31:05;;;;;;;1.05;0.93;;;;;;;;;;4948691;28;20038;-76
2023/04/28 12:33:36;;;;;;;3.53;1.33;;;;;;;;;;4949424;28;20089;-75
2023/04/28 12:36:02;;;;;;;1.20;0.90;;;;;;;;;;4948830;28;20027;-76
2023/04/28 12:38:28;;;;;;;1.40;1.00;;;;;;;;;;4949505;28;20123;-76
2023/04/28 12:40:54;;;;;;;2.03;1.15;;;;;;;;;;4948251;28;20035;-76
2023/04/28 12:43:22;;;;;;;1.00;0.90;;;;;;;;;;4949292;28;20034;-77
2023/04/28 12:45:48;;;;;;;0.90;0.90;;;;;;;;;;4949625;28;20055;-77
2023/04/28 12:48:14;;;;;;;2.47;0.70;;;;;;;;;;4949011;28;20506;-76
2023/04/28 12:50:40;;;;;;;3.90;0.90;;;;;;;;;;4931431;29;20042;-76
2023/04/28 12:53:06;;;;;;;1.55;0.73;;;;;;;;;;4949198;28;20027;-77
2023/04/28 12:55:32;;;;;;;0.93;0.88;;;;;;;;;;4948648;28;20118;-77
2023/04/28 12:57:58;;;;;;;1.98;0.90;;;;;;;;;;4949201;28;20390;-76
2023/04/28 13:00:25;;;;;;;1.48;0.90;;;;;;;;;;4947487;28;20114;-76
2023/04/28 13:02:51;;;;;;;1.25;0.90;;;;;;;;;;4949472;28;20031;-76
2023/04/28 13:05:20;;;;;;;1.15;0.90;;;;;;;;;;4931041;29;20047;-76
2023/04/28 13:07:48;;;;;;;1.52;1.00;;;;;;;;;;4948512;28;20597;-76
2023/04/28 13:10:17;;;;;;;3.03;1.20;;;;;;;;;;4949178;28;20054;-76
2023/04/28 13:12:52;;;;;;;1.13;0.98;;;;;;;;;;4948650;28;20035;-76
2023/04/28 13:15:18;;;;;;;2.83;1.05;;;;;;;;;;4949025;28;20089;-77
2023/04/28 13:17:45;;;;;;;1.08;0.98;;;;;;;;;;4948393;28;20037;-76
2023/04/28 13:20:11;;;;;;;1.88;1.30;;;;;;;;;;4948631;28;20505;-76
2023/04/28 13:22:40;;;;;;;1.80;0.90;;;;;;;;;;4947077;29;20503;-75
2023/04/28 13:25:07;;;;;;;1.33;0.90;;;;;;;;;;4944442;28;20070;-75
2023/04/28 13:27:33;;;;;;;0.88;0.88;;;;;;;;;;4947351;28;20035;-75
2023/04/28 13:29:59;;;;;;;2.00;1.02;;;;;;;;;;4942776;28;20035;-75
2023/04/28 13:32:26;;;;;;;1.38;1.20;;;;;;;;;;4941145;28;20059;-77
2023/04/28 13:34:52;;;;;;;1.27;1.17;;;;;;;;;;4950703;28;20035;-76
2023/04/28 13:37:21;;;;;;;1.17;1.05;;;;;;;;;;4949567;28;20027;-78
2023/04/28 13:39:47;;;;;;;1.58;1.23;;;;;;;;;;4951181;28;20027;-76
2023/04/28 13:42:15;;;;;;;1.65;1.40;;;;;;;;;;4952018;28;20399;-76
2023/04/28 13:44:41;;;;;;;2.05;1.25;;;;;;;;;;4945291;28;20028;-76
2023/04/28 13:47:09;;;;;;;1.27;0.88;;;;;;;;;;4940418;28;20027;-77
2023/04/28 13:49:36;;;;;;;1.85;1.23;;;;;;;;;;4950988;28;20071;-76
2023/04/28 13:52:02;;;;;;;1.55;1.33;;;;;;;;;;4938580;28;20040;-76
2023/04/28 13:54:28;;;;;;;3.17;1.15;;;;;;;;;;4947948;28;20569;-76
2023/04/28 13:56:55;;;;;;;2.33;1.30;;;;;;;;;;4952854;28;20031;-76
2023/04/28 13:59:21;;;;;;;2.70;1.35;;;;;;;;;;4952135;28;20031;-76
2023/04/28 14:01:47;;;;;;;1.33;1.00;;;;;;;;;;4950633;28;20024;-76
2023/04/28 14:04:13;;;;;;;0.90;0.90;;;;;;;;;;4934776;29;20039;-77
2023/04/28 14:06:39;;;;;;;1.10;1.00;;;;;;;;;;4942326;28;20023;-77
2023/04/28 14:09:23;;;;;;;0.90;0.75;;;;;;;;;;4951749;28;20481;-77
2023/04/28 14:11:59;;;;;;;1.83;1.08;;;;;;;;;;4950888;28;20035;-77
2023/04/28 14:14:34;;;;;;;1.17;0.90;;;;;;;;;;4950200;28;20043;-79
2023/04/28 14:17:07;;;;;;;1.00;0.85;;;;;;;;;;4946906;28;20038;-76
2023/04/28 14:19:34;;;;;;;2.17;1.30;;;;;;;;;;4939902;28;20050;-77
2023/04/28 14:22:00;;;;;;;1.58;0.90;;;;;;;;;;4951732;28;20027;-77
2023/04/28 14:24:26;;;;;;;1.48;0.93;;;;;;;;;;4951425;28;20094;-76
2023/04/28 14:26:52;;;;;;;1.42;1.13;;;;;;;;;;4943616;28;20023;-76
2023/04/28 14:29:18;;;;;;;1.23;1.02;;;;;;;;;;4950712;28;20086;-76
2023/04/28 14:31:44;;;;;;;1.20;1.10;;;;;;;;;;4947317;28;20039;-76
2023/04/28 14:34:10;;;;;;;2.38;1.27;;;;;;;;;;4951037;28;20023;-76
2023/04/28 14:36:37;;;;;;;1.20;1.10;;;;;;;;;;4938733;28;20130;-76
2023/04/28 14:39:03;;;;;;;0.80;0.80;;;;;;;;;;4940181;28;20390;-77
2023/04/28 14:41:29;;;;;;;1.50;1.30;;;;;;;;;;4951450;28;20035;-78
2023/04/28 14:43:55;;;;;;;1.63;1.00;;;;;;;;;;4936206;28;20082;-77